Time;durP1;ratioP1;P1;durP2;ratioP2;P2;SDS_P1;SDS_P2;PMS_P1;PMS_P2;Temp;Humidity;BMP_temperature;BMP_pressure;BME280_temperature;BME280_humidity;BME280_pressure;Samples;Min_cycle;Max_cycle;Signal;HPM_P1;HPM_P2
2022/12/15 00:39:57;;;;;;;;;;;;;;;19.87;39.07;99920.03;5034070;28;4393;-58
2022/12/15 00:42:24;;;;;;;;;;;;;;;19.87;39.07;99920.03;5048266;28;4113;-59
2022/12/15 00:44:51;;;;;;;;;;;;;;;19.87;39.02;99920.03;5037996;28;4232;-59
2022/12/15 00:47:17;;;;;;;;;;;;;;;19.87;39.12;99925.78;5034365;28;4260;-59
2022/12/15 01:20:18;;;;;;;;;;;;;;;19.82;39.01;99946.44;5042083;28;4000;-59
2022/12/15 01:22:48;;;;;;;;;;;;;;;19.82;39.11;99946.44;5031507;28;5181;-58
2022/12/15 01:25:16;;;;;;;;;;;;;;;19.82;39.12;99950.03;5044913;28;4183;-59
2022/12/15 01:27:42;;;;;;;;;;;;;;;19.82;39.12;99963.66;5042139;28;4851;-59
2022/12/15 01:30:09;;;;;;;;;;;;;;;19.81;39.13;99962.19;5049382;28;5576;-58
2022/12/15 01:32:35;;;;;;;;;;;;;;;19.79;39.02;99942.00;5047812;28;4102;-59
2022/12/15 01:35:08;;;;;;;;;;;;;;;19.78;39.12;99949.16;5044190;28;4316;-59
2022/12/15 01:37:35;;;;;;;;;;;;;;;19.76;39.21;99949.81;5030203;28;4176;-58
2022/12/15 01:42:46;;;;;;;;;;;;;;;19.75;39.14;99950.50;5038296;28;4200;-59
2022/12/15 01:45:22;;;;;;;;;;;;;;;19.74;39.14;99946.16;5046277;28;5103;-58
2022/12/15 01:47:51;;;;;;;;;;;;;;;19.74;39.16;99954.75;5048771;28;5194;-59
2022/12/15 01:50:18;;;;;;;;;;;;;;;19.74;39.15;99949.00;5045127;28;4220;-59
2022/12/15 01:52:44;;;;;;;;;;;;;;;19.76;39.09;99960.56;5022846;28;4144;-58
2022/12/15 01:55:15;;;;;;;;;;;;;;;19.76;39.07;99949.81;5022503;28;4007;-59
2022/12/15 01:57:41;;;;;;;;;;;;;;;19.76;39.07;99954.84;5031097;28;4223;-59
2022/12/15 02:00:07;;;;;;;;;;;;;;;19.77;39.10;99950.53;5043686;28;4966;-58
2022/12/15 02:02:34;;;;;;;;;;;;;;;19.77;39.19;99951.31;5034750;28;4158;-60
2022/12/15 02:05:05;;;;;;;;;;;;;;;19.77;39.21;99945.56;5029906;28;4125;-59
2022/12/15 02:07:32;;;;;;;;;;;;;;;19.77;39.13;99947.69;5028615;28;4094;-58
2022/12/15 02:09:59;;;;;;;;;;;;;;;19.76;39.21;99952.69;5046772;28;4119;-58
2022/12/15 02:12:43;;;;;;;;;;;;;;;19.75;39.17;99959.13;5040247;28;5374;-58
2022/12/15 02:15:09;;;;;;;;;;;;;;;19.74;39.21;99964.09;5042208;28;5077;-58
2022/12/15 02:17:39;;;;;;;;;;;;;;;19.72;39.14;99954.69;5042553;28;4556;-59
2022/12/15 02:20:17;;;;;;;;;;;;;;;19.72;39.18;99960.44;5033598;28;4194;-59
2022/12/15 02:23:02;;;;;;;;;;;;;;;19.71;39.22;99970.47;5052398;28;4067;-58
2022/12/15 02:33:51;;;;;;;;;;;;;;;19.71;39.09;99990.56;5018201;28;5551;-58
2022/12/15 02:36:33;;;;;;;;;;;;;;;19.72;39.05;99995.63;5028219;28;4024;-59
2022/12/15 02:39:00;;;;;;;;;;;;;;;19.73;39.00;99999.25;5032686;28;4081;-58
2022/12/15 02:41:36;;;;;;;;;;;;;;;19.73;39.06;99997.13;5047922;28;5209;-58
2022/12/15 02:44:06;;;;;;;;;;;;;;;19.72;39.18;99997.78;5038318;28;4091;-58
2022/12/15 02:46:35;;;;;;;;;;;;;;;19.73;39.25;100008.59;5048162;28;5133;-58
2022/12/15 02:49:05;;;;;;;;;;;;;;;19.73;39.21;100007.88;5047504;28;4266;-58
2022/12/15 02:51:42;;;;;;;;;;;;;;;19.71;39.29;100004.94;5020884;28;4274;-58
2022/12/15 02:54:19;;;;;;;;;;;;;;;19.72;39.52;100012.13;5026003;28;5388;-58
2022/12/15 02:56:50;;;;;;;;;;;;;;;19.70;39.16;100000.56;5028722;28;4202;-58
2022/12/15 02:59:36;;;;;;;;;;;;;;;19.69;39.21;100001.97;5029369;28;5225;-58
2022/12/15 03:02:04;;;;;;;;;;;;;;;19.67;39.14;100005.47;5044095;28;4156;-58
2022/12/15 03:04:32;;;;;;;;;;;;;;;19.65;39.11;100020.53;5047100;28;5622;-58
2022/12/15 03:06:59;;;;;;;;;;;;;;;19.66;39.01;100015.50;5044463;28;4127;-59
2022/12/15 03:09:26;;;;;;;;;;;;;;;19.66;39.05;100018.38;5029910;28;4197;-58
2022/12/15 03:11:53;;;;;;;;;;;;;;;19.66;38.99;100010.50;5047904;28;4186;-58
2022/12/15 03:14:19;;;;;;;;;;;;;;;19.69;39.01;100022.09;5050030;28;4103;-58
2022/12/15 03:16:46;;;;;;;;;;;;;;;19.67;39.04;100023.44;5045409;28;4145;-58
2022/12/15 03:19:12;;;;;;;;;;;;;;;19.67;39.09;100017.69;5041582;28;4029;-58
2022/12/15 03:21:38;;;;;;;;;;;;;;;19.69;39.09;100013.47;5044082;28;5343;-60
2022/12/15 03:24:05;;;;;;;;;;;;;;;19.69;39.28;100013.47;5039586;28;4113;-58
2022/12/15 03:26:31;;;;;;;;;;;;;;;19.70;39.19;100014.94;5048219;28;4203;-58
2022/12/15 03:28:58;;;;;;;;;;;;;;;19.69;39.26;100019.94;5053095;28;4087;-58
2022/12/15 03:31:24;;;;;;;;;;;;;;;19.69;39.26;100019.94;5048414;28;4194;-58
2022/12/15 03:33:50;;;;;;;;;;;;;;;19.67;39.22;100023.44;5048711;28;5188;-58
2022/12/15 03:36:17;;;;;;;;;;;;;;;19.67;39.25;100023.44;5045920;28;4630;-58
2022/12/15 03:38:43;;;;;;;;;;;;;;;19.66;39.27;100019.09;5028429;28;3996;-58
2022/12/15 03:41:09;;;;;;;;;;;;;;;19.65;39.31;100026.25;5055685;28;4351;-59
2022/12/15 03:43:36;;;;;;;;;;;;;;;19.62;39.38;100027.56;5055086;28;5155;-58
2022/12/15 03:46:03;;;;;;;;;;;;;;;19.64;39.28;100030.53;5051590;28;5233;-58
2022/12/15 03:48:29;;;;;;;;;;;;;;;19.63;39.29;100034.81;5048835;28;4185;-58
2022/12/15 03:50:55;;;;;;;;;;;;;;;19.64;39.22;100035.53;5036115;28;4158;-58
2022/12/15 03:53:22;;;;;;;;;;;;;;;19.64;39.16;100039.13;5021778;28;4117;-58
2022/12/15 03:55:48;;;;;;;;;;;;;;;19.65;39.26;100040.63;5042613;28;5042;-58
2022/12/15 03:58:14;;;;;;;;;;;;;;;19.66;39.19;100030.59;5048157;28;4114;-59
2022/12/15 04:00:41;;;;;;;;;;;;;;;19.69;39.24;100040.06;5036397;28;4199;-58
2022/12/15 04:03:08;;;;;;;;;;;;;;;19.70;39.24;100037.91;5042970;28;4228;-58
2022/12/15 04:05:34;;;;;;;;;;;;;;;19.70;39.30;100043.66;5032242;28;5375;-58
2022/12/15 04:08:01;;;;;;;;;;;;;;;19.70;39.42;100047.28;5047957;28;4115;-58
2022/12/15 04:10:28;;;;;;;;;;;;;;;19.71;39.54;100050.88;5045816;28;6657;-58
2022/12/15 04:13:00;;;;;;;;;;;;;;;19.70;39.64;100058.00;5053796;28;4113;-58
2022/12/15 04:15:26;;;;;;;;;;;;;;;19.70;39.49;100049.41;5046022;28;5500;-58
2022/12/15 04:17:53;;;;;;;;;;;;;;;19.70;39.51;100058.00;5050374;28;4179;-58
2022/12/15 04:20:19;;;;;;;;;;;;;;;19.70;39.50;100063.75;5044454;28;5302;-58
2022/12/15 04:22:46;;;;;;;;;;;;;;;19.67;39.48;100060.78;5053889;28;4165;-58
2022/12/15 05:31:53;;;;;;;;;;;;;;;19.66;39.55;100142.63;5030625;28;4148;-58
2022/12/15 05:34:25;;;;;;;;;;;;;;;19.65;39.47;100138.28;5031873;28;4005;-58
2022/12/15 05:36:51;;;;;;;;;;;;;;;19.64;39.42;100148.28;5032376;28;4193;-58
2022/12/15 05:39:18;;;;;;;;;;;;;;;19.64;39.36;100139.66;5034029;28;4218;-58
2022/12/15 05:41:44;;;;;;;;;;;;;;;19.63;39.46;100132.44;5031203;28;4081;-57
2022/12/15 05:44:10;;;;;;;;;;;;;;;19.63;39.44;100143.94;5039233;28;4452;-58
2022/12/15 05:46:37;;;;;;;;;;;;;;;19.63;39.47;100149.69;5043004;28;4388;-58
2022/12/15 05:49:07;;;;;;;;;;;;;;;19.64;39.41;100171.25;5051352;28;4183;-59
2022/12/15 05:51:33;;;;;;;;;;;;;;;19.64;39.35;100176.25;5033622;28;4129;-58
2022/12/15 05:53:59;;;;;;;;;;;;;;;19.64;39.39;100176.25;5034272;28;4205;-59
2022/12/15 05:56:26;;;;;;;;;;;;;;;19.65;39.36;100178.50;5036963;28;4033;-58
2022/12/15 05:58:52;;;;;;;;;;;;;;;19.65;39.27;100183.47;5044950;28;4197;-59
2022/12/15 06:01:18;;;;;;;;;;;;;;;19.62;39.68;100181.94;5046879;28;4419;-59
2022/12/15 06:03:45;;;;;;;;;;;;;;;19.64;39.40;100185.63;5044187;28;5315;-58
2022/12/15 06:06:11;;;;;;;;;;;;;;;19.67;39.45;100177.81;5040673;28;3975;-58
2022/12/15 06:08:38;;;;;;;;;;;;;;;19.66;39.77;100188.56;5049032;28;5328;-59
2022/12/15 06:11:04;;;;;;;;;;;;;;;19.40;39.00;100190.41;5045928;28;4196;-57
2022/12/15 06:13:31;;;;;;;;;;;;;;;19.47;39.11;100189.25;5023232;28;4514;-66
2022/12/15 06:16:04;;;;;;;;;;;;;;;19.63;38.98;100184.16;5040315;28;4092;-70
2022/12/15 06:18:31;;;;;;;;;;;;;;;19.69;38.62;100180.06;5034199;28;4159;-71
2022/12/15 06:20:58;;;;;;;;;;;;;;;19.76;39.29;100179.63;5041992;28;5256;-67
2022/12/15 06:23:25;;;;;;;;;;;;;;;19.84;40.05;100184.97;5042200;28;4203;-66
2022/12/15 06:25:58;;;;;;;;;;;;;;;19.89;40.06;100186.56;5037567;28;4698;-68
2022/12/15 06:28:24;;;;;;;;;;;;;;;19.91;40.11;100178.03;5042599;28;4160;-70
2022/12/15 06:30:51;;;;;;;;;;;;;;;19.92;39.93;100173.75;5033879;28;4191;-67
2022/12/15 06:33:18;;;;;;;;;;;;;;;19.94;39.97;100176.69;5041064;28;4183;-66
2022/12/15 06:35:51;;;;;;;;;;;;;;;19.96;39.84;100179.66;5013594;28;4137;-66
2022/12/15 06:38:17;;;;;;;;;;;;;;;20.00;39.64;100185.56;5039316;28;4146;-67
2022/12/15 06:40:43;;;;;;;;;;;;;;;19.97;39.65;100181.13;5031038;28;4173;-66
2022/12/15 06:43:10;;;;;;;;;;;;;;;20.07;39.80;100183.66;5042448;28;4207;-66
2022/12/15 06:45:36;;;;;;;;;;;;;;;20.11;39.63;100201.03;5031748;28;4084;-67
2022/12/15 06:48:02;;;;;;;;;;;;;;;20.13;39.65;100186.00;5037023;28;4256;-65
2022/12/15 06:50:29;;;;;;;;;;;;;;;19.99;39.42;100186.94;5037479;28;4182;-65
2022/12/15 06:52:56;;;;;;;;;;;;;;;19.99;39.25;100195.56;5037117;28;4100;-63
2022/12/15 06:55:22;;;;;;;;;;;;;;;19.97;39.24;100204.09;5031014;28;4199;-66
2022/12/15 06:57:48;;;;;;;;;;;;;;;19.97;39.37;100209.84;5040383;28;5229;-66
2022/12/15 07:00:15;;;;;;;;;;;;;;;19.97;39.36;100229.97;5041817;28;4178;-63
2022/12/15 07:02:41;;;;;;;;;;;;;;;19.98;39.32;100234.34;5040174;28;4182;-59
2022/12/15 07:05:15;;;;;;;;;;;;;;;20.08;39.96;100231.81;5027744;28;5372;-67
2022/12/15 07:07:42;;;;;;;;;;;;;;;19.98;39.72;100237.19;5038497;28;4280;-67
2022/12/15 07:10:09;;;;;;;;;;;;;;;19.95;39.61;100240.66;5043443;28;4168;-67
2022/12/15 07:12:41;;;;;;;;;;;;;;;19.95;39.12;100238.53;5043799;28;4368;-67
2022/12/15 07:15:10;;;;;;;;;;;;;;;19.97;39.00;100241.47;5043152;28;4054;-67
2022/12/15 07:17:36;;;;;;;;;;;;;;;19.98;39.13;100245.09;5034983;28;5270;-67
2022/12/15 07:20:04;;;;;;;;;;;;;;;19.99;39.14;100258.06;5041751;28;4100;-67
2022/12/15 07:22:30;;;;;;;;;;;;;;;19.95;39.31;100252.91;5028370;28;4055;-66
2022/12/15 07:24:56;;;;;;;;;;;;;;;20.03;39.44;100264.69;5037903;28;4071;-66
2022/12/15 07:27:23;;;;;;;;;;;;;;;20.25;39.17;100264.06;5031335;28;4510;-66
2022/12/15 07:29:49;;;;;;;;;;;;;;;20.36;39.02;100271.66;5036841;28;4480;-62
2022/12/15 07:32:15;;;;;;;;;;;;;;;20.43;38.90;100276.25;5036288;28;4141;-65
2022/12/15 07:34:42;;;;;;;;;;;;;;;20.48;38.92;100285.75;5041937;28;4285;-66
2022/12/15 07:37:08;;;;;;;;;;;;;;;20.49;39.03;100279.34;5030707;28;4220;-66
2022/12/15 07:39:35;;;;;;;;;;;;;;;20.54;38.89;100279.50;5046576;28;4154;-63
2022/12/15 07:42:01;;;;;;;;;;;;;;;20.61;38.89;100286.97;5028120;28;4571;-66
2022/12/15 07:44:30;;;;;;;;;;;;;;;20.74;39.05;100297.50;5031021;28;5332;-68
2022/12/15 07:47:00;;;;;;;;;;;;;;;20.76;38.71;100293.97;5035417;28;5260;-69
2022/12/15 07:49:26;;;;;;;;;;;;;;;20.71;39.11;100295.97;5025909;28;5466;-68
2022/12/15 07:51:52;;;;;;;;;;;;;;;20.72;38.85;100300.31;5028374;28;4466;-68
2022/12/15 07:54:19;;;;;;;;;;;;;;;20.77;38.74;100306.94;5025056;28;4229;-67
2022/12/15 07:56:45;;;;;;;;;;;;;;;20.76;38.59;100309.09;5026339;28;4184;-67
2022/12/15 07:59:16;;;;;;;;;;;;;;;20.78;38.43;100314.19;5036713;28;4453;-66
2022/12/15 08:01:42;;;;;;;;;;;;;;;20.85;38.55;100319.50;5035494;28;3973;-66
2022/12/15 08:04:09;;;;;;;;;;;;;;;20.90;38.58;100309.59;5024978;28;4610;-67
2022/12/15 08:06:35;;;;;;;;;;;;;;;20.96;38.45;100311.22;5029115;28;4276;-66
2022/12/15 08:09:01;;;;;;;;;;;;;;;21.00;38.37;100308.47;5029375;28;4026;-67
2022/12/15 08:11:32;;;;;;;;;;;;;;;21.00;38.34;100311.34;5017542;28;4043;-64
2022/12/15 08:13:59;;;;;;;;;;;;;;;21.00;38.50;100312.09;5024103;28;4089;-66
2022/12/15 08:16:29;;;;;;;;;;;;;;;20.99;38.47;100322.13;5034298;28;4024;-65
2022/12/15 08:18:58;;;;;;;;;;;;;;;20.98;38.42;100320.69;5031266;28;4099;-64
2022/12/15 08:21:24;;;;;;;;;;;;;;;21.04;38.41;100328.78;5031145;28;4220;-61
2022/12/15 08:23:53;;;;;;;;;;;;;;;21.10;38.40;100337.63;5028414;28;5266;-63
2022/12/15 08:26:22;;;;;;;;;;;;;;;21.07;38.28;100324.56;5023058;28;4138;-66
2022/12/15 08:29:05;;;;;;;;;;;;;;;20.96;38.73;100342.88;5032083;28;4002;-66
2022/12/15 08:31:51;;;;;;;;;;;;;;;21.01;38.37;100347.38;5029102;28;4398;-64
2022/12/15 08:34:18;;;;;;;;;;;;;;;21.00;38.23;100340.13;5032250;28;4134;-65
2022/12/15 08:36:44;;;;;;;;;;;;;;;20.87;39.04;100345.47;5030257;28;4020;-66
2022/12/15 08:39:10;;;;;;;;;;;;;;;20.81;38.91;100330.84;5015757;28;4518;-65
2022/12/15 08:41:36;;;;;;;;;;;;;;;20.91;39.24;100334.09;5029529;28;4130;-62
2022/12/15 08:44:03;;;;;;;;;;;;;;;21.01;38.59;100330.84;5027146;28;4020;-66
2022/12/15 08:46:30;;;;;;;;;;;;;;;21.10;38.39;100329.00;5026045;28;4219;-65
2022/12/15 08:48:56;;;;;;;;;;;;;;;21.07;38.08;100344.69;5031239;28;4101;-64
2022/12/15 08:51:23;;;;;;;;;;;;;;;21.04;38.30;100351.81;5036429;28;4119;-65
2022/12/15 08:53:49;;;;;;;;;;;;;;;20.95;37.90;100350.03;5030021;28;4576;-66
2022/12/15 08:56:17;;;;;;;;;;;;;;;20.90;38.12;100352.03;5037114;28;4257;-66
2022/12/15 08:58:44;;;;;;;;;;;;;;;20.89;38.24;100359.94;5030558;28;4167;-66
2022/12/15 09:01:11;;;;;;;;;;;;;;;20.86;38.21;100349.72;5030548;28;4169;-66
2022/12/15 09:03:44;;;;;;;;;;;;;;;20.86;38.32;100358.38;5025864;28;4146;-66
2022/12/15 09:06:14;;;;;;;;;;;;;;;20.85;38.39;100359.78;5029958;28;4179;-66
2022/12/15 09:08:40;;;;;;;;;;;;;;;20.86;38.41;100354.75;5028621;28;4053;-65
2022/12/15 09:11:07;;;;;;;;;;;;;;;20.86;38.36;100346.84;5024030;28;4030;-66
2022/12/15 09:13:33;;;;;;;;;;;;;;;20.85;38.35;100338.91;5033306;28;4033;-66
2022/12/15 09:16:01;;;;;;;;;;;;;;;20.86;38.32;100349.00;5029608;28;4133;-66
2022/12/15 09:18:36;;;;;;;;;;;;;;;20.86;38.33;100349.72;5032988;28;4167;-65
2022/12/15 09:21:06;;;;;;;;;;;;;;;20.86;38.33;100366.25;5031387;28;4233;-66
2022/12/15 09:23:32;;;;;;;;;;;;;;;20.85;38.42;100365.53;5033670;28;4018;-66
2022/12/15 09:26:00;;;;;;;;;;;;;;;20.86;38.40;100367.00;5022596;28;4209;-66
2022/12/15 09:28:27;;;;;;;;;;;;;;;20.85;38.32;100379.19;5029810;28;4238;-66
2022/12/15 09:30:54;;;;;;;;;;;;;;;20.84;38.31;100374.81;5021859;28;5223;-64
2022/12/15 09:33:20;;;;;;;;;;;;;;;20.84;38.38;100372.69;5035998;28;4561;-66
2022/12/15 09:35:50;;;;;;;;;;;;;;;20.85;38.14;100374.16;5035333;28;4179;-67
2022/12/15 09:38:16;;;;;;;;;;;;;;;20.85;38.21;100362.66;5035662;28;4201;-66
2022/12/15 09:40:42;;;;;;;;;;;;;;;20.90;38.11;100360.66;5030303;28;5246;-66
2022/12/15 09:43:08;;;;;;;;;;;;;;;20.89;38.21;100368.56;5037938;28;4219;-66
2022/12/15 09:45:57;;;;;;;;;;;;;;;20.96;38.18;100368.78;5032920;28;4172;-66
2022/12/15 09:48:23;;;;;;;;;;;;;;;20.89;38.29;100365.69;5031506;28;4182;-66
2022/12/15 09:50:51;;;;;;;;;;;;;;;20.84;38.21;100358.28;5027879;28;4167;-66
2022/12/15 09:53:17;;;;;;;;;;;;;;;20.87;38.35;100368.50;5035105;28;4218;-66
2022/12/15 09:56:07;;;;;;;;;;;;;;;20.87;38.36;100368.50;5033353;28;5202;-62
2022/12/15 09:58:39;;;;;;;;;;;;;;;20.89;38.17;100370.69;5034046;28;4659;-66
2022/12/15 10:01:24;;;;;;;;;;;;;;;20.89;38.23;100374.31;5032937;28;4269;-65
2022/12/15 10:04:06;;;;;;;;;;;;;;;20.89;38.23;100371.44;5026951;28;4185;-66
2022/12/15 10:06:35;;;;;;;;;;;;;;;20.89;38.26;100374.31;5022471;28;5112;-66
2022/12/15 10:09:14;;;;;;;;;;;;;;;20.90;38.08;100372.91;5032769;28;5204;-66
2022/12/15 10:11:48;;;;;;;;;;;;;;;20.89;38.17;100382.97;5037897;28;5217;-67
2022/12/15 10:14:36;;;;;;;;;;;;;;;20.89;38.03;100388.72;5037352;28;4165;-67
2022/12/15 10:17:11;;;;;;;;;;;;;;;20.93;38.28;100388.84;5038591;28;4165;-66
2022/12/15 10:19:41;;;;;;;;;;;;;;;20.87;38.46;100380.00;5042257;28;4329;-66
2022/12/15 10:22:32;;;;;;;;;;;;;;;20.86;38.29;100378.50;5028209;28;4179;-65
2022/12/15 10:25:19;;;;;;;;;;;;;;;20.88;38.33;100381.47;5038354;28;4102;-66
2022/12/15 10:28:14;;;;;;;;;;;;;;;20.90;38.27;100386.56;5031626;28;4123;-66
2022/12/15 10:31:01;;;;;;;;;;;;;;;20.90;38.37;100390.19;5041066;28;5247;-63
2022/12/15 10:33:30;;;;;;;;;;;;;;;20.93;38.23;100377.31;5040241;28;4105;-64
2022/12/15 10:36:01;;;;;;;;;;;;;;;20.92;38.41;100378.75;5036858;28;5445;-66
2022/12/15 10:38:36;;;;;;;;;;;;;;;20.93;38.26;100377.31;5035794;28;4113;-66
2022/12/15 10:41:04;;;;;;;;;;;;;;;20.95;38.28;100378.81;5033319;28;5071;-63
2022/12/15 10:43:35;;;;;;;;;;;;;;;20.99;38.71;100379.69;5038315;28;4120;-66
2022/12/15 10:46:03;;;;;;;;;;;;;;;21.06;38.59;100384.28;5032490;28;4518;-66
2022/12/15 10:48:30;;;;;;;;;;;;;;;21.08;38.51;100387.22;5037750;28;5267;-66
2022/12/15 10:51:07;;;;;;;;;;;;;;;21.11;38.50;100396.66;5031421;28;4688;-66
2022/12/15 10:53:38;;;;;;;;;;;;;;;20.92;38.30;100381.63;5042529;28;5107;-64
2022/12/15 10:56:04;;;;;;;;;;;;;;;20.91;37.83;100388.03;5049906;28;4078;-64
2022/12/15 10:58:31;;;;;;;;;;;;;;;20.91;37.95;100403.19;5041753;28;4894;-59
2022/12/15 11:01:07;;;;;;;;;;;;;;;20.79;38.16;100394.06;5032029;28;4108;-63
2022/12/15 11:03:36;;;;;;;;;;;;;;;20.67;38.62;100408.03;5041573;28;4084;-69
2022/12/15 11:06:13;;;;;;;;;;;;;;;20.66;38.70;100415.16;5049680;28;4397;-66
2022/12/15 11:08:40;;;;;;;;;;;;;;;20.75;38.55;100414.06;5042790;28;4402;-64
2022/12/15 11:14:15;;;;;;;;;;;;;;;20.69;38.73;100416.72;5039819;28;4329;-66
2022/12/15 11:16:43;;;;;;;;;;;;;;;20.61;38.82;100416.41;5044584;28;4137;-65
2022/12/15 11:19:15;;;;;;;;;;;;;;;20.59;38.78;100427.84;5029975;28;4195;-66
2022/12/15 11:21:43;;;;;;;;;;;;;;;20.61;38.76;100422.88;5035424;28;4111;-65
2022/12/15 11:24:14;;;;;;;;;;;;;;;20.56;38.71;100432.00;5036141;28;5410;-59
2022/12/15 11:26:47;;;;;;;;;;;;;;;20.68;39.05;100421.75;5037420;28;4118;-68
2022/12/15 11:29:25;;;;;;;;;;;;;;;20.91;38.71;100419.69;5042494;28;4282;-68
2022/12/15 11:31:53;;;;;;;;;;;;;;;20.98;38.40;100424.28;5044061;28;4935;-67
2022/12/15 11:34:23;;;;;;;;;;;;;;;21.05;38.33;100417.34;5037868;28;4161;-69
2022/12/15 11:36:53;;;;;;;;;;;;;;;21.09;38.46;100420.34;5035424;28;4298;-71
2022/12/15 11:39:24;;;;;;;;;;;;;;;21.10;38.31;100421.13;5026519;28;4800;-68
2022/12/15 11:41:56;;;;;;;;;;;;;;;21.08;38.13;100415.28;5033092;28;4272;-67
2022/12/15 11:44:23;;;;;;;;;;;;;;;20.89;37.80;100429.00;5037126;28;4165;-69
2022/12/15 11:46:58;;;;;;;;;;;;;;;20.22;34.71;100418.47;5034339;28;4868;-69
2022/12/15 11:49:25;;;;;;;;;;;;;;;20.39;33.44;100425.63;5032581;28;4019;-68
2022/12/15 11:51:52;;;;;;;;;;;;;;;20.73;33.95;100428.41;5034335;28;4163;-69
2022/12/15 11:54:27;;;;;;;;;;;;;;;20.95;34.17;100413.34;5037645;28;4102;-71
2022/12/15 11:57:03;;;;;;;;;;;;;;;21.08;35.21;100415.28;5040351;28;4464;-70
2022/12/15 11:59:42;;;;;;;;;;;;;;;21.07;36.03;100402.28;5032176;28;4648;-69
2022/12/15 12:02:10;;;;;;;;;;;;;;;20.98;36.71;100397.63;5039547;28;4149;-70
2022/12/15 12:04:57;;;;;;;;;;;;;;;21.09;37.07;100405.97;5022069;28;4040;-72
2022/12/15 12:07:26;;;;;;;;;;;;;;;21.18;37.37;100401.25;5029628;28;4077;-71
2022/12/15 12:10:11;;;;;;;;;;;;;;;20.89;38.05;100403.09;5032255;28;5517;-72
2022/12/15 12:12:42;;;;;;;;;;;;;;;20.91;38.60;100390.91;5030371;28;4129;-70
2022/12/15 12:15:31;;;;;;;;;;;;;;;21.02;38.64;100400.66;5037827;28;5459;-70
2022/12/15 12:18:00;;;;;;;;;;;;;;;21.06;38.89;100400.81;5045586;28;4213;-70
2022/12/15 12:20:46;;;;;;;;;;;;;;;20.90;39.24;100395.94;5026722;28;4358;-67
2022/12/15 12:23:14;;;;;;;;;;;;;;;20.95;39.46;100398.97;5035454;28;4136;-67
2022/12/15 12:25:57;;;;;;;;;;;;;;;20.68;39.58;100397.97;5027703;28;4128;-67
2022/12/15 12:28:31;;;;;;;;;;;;;;;20.60;38.88;100397.69;5022419;28;4163;-67
2022/12/15 12:30:59;;;;;;;;;;;;;;;20.65;38.37;100400.03;5035154;28;4283;-68
2022/12/15 12:33:37;;;;;;;;;;;;;;;20.65;38.56;100397.16;5037023;28;4207;-68
2022/12/15 12:36:08;;;;;;;;;;;;;;;20.64;38.83;100398.56;5029457;28;4552;-68
2022/12/15 12:38:45;;;;;;;;;;;;;;;20.62;38.84;100418.63;5031506;28;4108;-68
2022/12/15 12:41:22;;;;;;;;;;;;;;;20.83;39.53;100411.50;5042517;28;4032;-68
2022/12/15 12:43:55;;;;;;;;;;;;;;;20.85;39.86;100405.09;5044268;28;4119;-68
2022/12/15 12:46:24;;;;;;;;;;;;;;;20.99;40.29;100413.50;5040233;28;4145;-66
2022/12/15 12:48:54;;;;;;;;;;;;;;;21.06;40.37;100413.06;5033061;28;5283;-67
2022/12/15 12:51:31;;;;;;;;;;;;;;;21.06;40.46;100418.09;5026042;28;4163;-69
2022/12/15 12:53:57;;;;;;;;;;;;;;;21.18;40.30;100423.53;5035424;28;4871;-69
2022/12/15 12:56:39;;;;;;;;;;;;;;;21.26;40.18;100430.34;5038408;28;4103;-68
2022/12/15 12:59:24;;;;;;;;;;;;;;;21.33;39.98;100434.19;5031928;28;4625;-68
2022/12/15 13:02:30;;;;;;;;;;;;;;;21.36;40.12;100427.06;5025337;28;4146;-67
2022/12/15 13:05:00;;;;;;;;;;;;;;;21.30;40.28;100421.09;5025453;28;4835;-67
2022/12/15 13:07:30;;;;;;;;;;;;;;;21.11;41.40;100419.69;5029215;28;4202;-70
2022/12/15 13:10:17;;;;;;;;;;;;;;;21.15;41.01;100414.09;5021559;28;5103;-67
2022/12/15 13:12:46;;;;;;;;;;;;;;;21.05;41.13;100419.47;5024969;28;5003;-66
2022/12/15 13:15:37;;;;;;;;;;;;;;;21.07;41.17;100416.66;5035136;28;3929;-66
2022/12/15 13:18:03;;;;;;;;;;;;;;;20.74;40.68;100418.34;5043599;28;4365;-66
2022/12/15 13:20:30;;;;;;;;;;;;;;;20.69;40.46;100422.47;5039486;28;4153;-66
2022/12/15 13:23:15;;;;;;;;;;;;;;;20.77;40.66;100414.16;5035522;28;4789;-67
2022/12/15 13:25:41;;;;;;;;;;;;;;;20.83;41.32;100414.38;5042126;28;4278;-66
2022/12/15 13:28:27;;;;;;;;;;;;;;;20.89;41.25;100411.75;5038166;28;4434;-67
2022/12/15 13:31:16;;;;;;;;;;;;;;;20.92;41.42;100404.66;5037896;28;4164;-66
2022/12/15 13:33:52;;;;;;;;;;;;;;;20.93;41.61;100402.50;5039818;28;4155;-67
2022/12/15 13:36:36;;;;;;;;;;;;;;;20.91;41.51;100403.19;5038731;28;4711;-67
2022/12/15 13:39:04;;;;;;;;;;;;;;;20.89;41.60;100400.22;5043766;28;4137;-67
2022/12/15 13:41:32;;;;;;;;;;;;;;;20.90;41.50;100406.72;5038749;28;5266;-67
2022/12/15 13:43:58;;;;;;;;;;;;;;;20.86;41.67;100407.28;5037172;28;4179;-67
2022/12/15 13:46:25;;;;;;;;;;;;;;;20.86;41.59;100410.16;5031828;28;4192;-67
2022/12/15 13:48:52;;;;;;;;;;;;;;;20.84;41.26;100418.72;5039799;28;4180;-66
2022/12/15 13:51:28;;;;;;;;;;;;;;;20.82;41.35;100412.91;5026634;28;4194;-67
2022/12/15 13:54:06;;;;;;;;;;;;;;;20.82;41.38;100420.78;5034223;28;4553;-67
2022/12/15 13:56:39;;;;;;;;;;;;;;;20.77;41.28;100410.53;5035101;28;4120;-68
2022/12/15 13:59:09;;;;;;;;;;;;;;;20.75;41.16;100416.94;5037117;28;4131;-66
2022/12/15 14:01:35;;;;;;;;;;;;;;;20.75;41.00;100411.19;5040324;28;4263;-66
2022/12/15 14:04:03;;;;;;;;;;;;;;;20.74;41.45;100406.84;5029590;28;4186;-75
2022/12/15 14:06:33;;;;;;;;;;;;;;;21.21;41.96;100417.19;5032853;28;4048;-79
2022/12/15 14:08:59;;;;;;;;;;;;;;;21.46;41.07;100412.31;5041287;28;5158;-77
2022/12/15 14:11:26;;;;;;;;;;;;;;;21.58;41.04;100415.63;5029484;28;4188;-76
2022/12/15 14:14:17;;;;;;;;;;;;;;;21.66;40.69;100410.13;5049951;28;4105;-77
2022/12/15 14:16:44;;;;;;;;;;;;;;;21.71;40.63;100411.72;5044170;28;4206;-77
2022/12/15 14:19:13;;;;;;;;;;;;;;;21.74;40.83;100409.69;5040406;28;4130;-78
2022/12/15 14:21:39;;;;;;;;;;;;;;;21.80;40.75;100412.00;5030371;28;4150;-76
2022/12/15 14:24:20;;;;;;;;;;;;;;;21.80;40.46;100409.88;5037418;28;4025;-75
2022/12/15 14:27:04;;;;;;;;;;;;;;;21.63;40.26;100417.22;5035862;28;4110;-78
2022/12/15 14:29:31;;;;;;;;;;;;;;;12.82;41.09;100431.53;5030454;28;4340;-75
2022/12/15 14:31:57;;;;;;;;;;;;;;;17.98;37.36;100416.47;5031038;28;4619;-77
2022/12/15 14:34:35;;;;;;;;;;;;;;;19.85;36.74;100411.25;5030288;28;4024;-78
2022/12/15 14:37:14;;;;;;;;;;;;;;;20.59;36.56;100424.97;5048620;28;4171;-76
2022/12/15 14:39:42;;;;;;;;;;;;;;;20.89;36.76;100414.63;5040636;28;5282;-76
2022/12/15 14:42:18;;;;;;;;;;;;;;;21.06;36.95;100424.56;5039640;28;4029;-75
2022/12/15 14:44:45;;;;;;;;;;;;;;;21.16;37.23;100426.34;5034927;28;5503;-77
2022/12/15 14:47:18;;;;;;;;;;;;;;;21.22;37.33;100415.78;5035807;28;4155;-75
2022/12/15 14:49:50;;;;;;;;;;;;;;;21.40;37.84;100409.22;5044970;28;5483;-75
2022/12/15 14:52:30;;;;;;;;;;;;;;;21.59;37.64;100419.97;5038189;28;4224;-74
2022/12/15 14:55:00;;;;;;;;;;;;;;;21.66;38.05;100424.53;5033538;28;5408;-72
2022/12/15 14:57:44;;;;;;;;;;;;;;;21.67;37.97;100423.13;5026673;28;4124;-67
2022/12/15 15:00:24;;;;;;;;;;;;;;;21.61;37.95;100425.06;5032829;28;4539;-67
2022/12/15 15:03:10;;;;;;;;;;;;;;;21.59;38.37;100425.00;5032408;28;4083;-67
2022/12/15 15:05:46;;;;;;;;;;;;;;;21.60;38.53;100427.22;5038167;28;4251;-67
2022/12/15 15:08:13;;;;;;;;;;;;;;;21.58;38.64;100430.03;5029402;28;4439;-67
2022/12/15 15:10:39;;;;;;;;;;;;;;;21.57;38.76;100433.56;5036381;28;4052;-68
2022/12/15 15:13:13;;;;;;;;;;;;;;;21.57;38.63;100434.31;5034979;28;4033;-66
2022/12/15 15:15:40;;;;;;;;;;;;;;;21.60;38.68;100433.00;5035949;28;4706;-67
2022/12/15 15:18:13;;;;;;;;;;;;;;;21.59;38.98;100436.53;5037481;28;4117;-67
2022/12/15 15:20:46;;;;;;;;;;;;;;;21.60;38.98;100435.13;5032463;28;4076;-67
2022/12/15 15:23:14;;;;;;;;;;;;;;;21.61;39.23;100437.34;5037050;28;5275;-67
2022/12/15 15:25:53;;;;;;;;;;;;;;;21.64;39.15;100432.38;5040054;28;4207;-67
2022/12/15 15:28:21;;;;;;;;;;;;;;;21.64;39.22;100433.09;5031454;28;4419;-66
2022/12/15 15:30:49;;;;;;;;;;;;;;;21.68;39.00;100439.00;5034674;28;4104;-66
2022/12/15 15:33:15;;;;;;;;;;;;;;;21.71;39.21;100434.78;5033461;28;4469;-66
2022/12/15 15:35:42;;;;;;;;;;;;;;;21.70;39.24;100444.84;5031496;28;5242;-66